Terminal Aerodrome Forecast
Issued by NWS Lake Charles, LA

Home | Current Version | Previous Version | Text Only | Print | Product List | Glossary On
Versions: 1 2 3 4 5 6 7 8 9 10 11 12 13 14 15 16 17 18 19 20
728
FTUS44 KLCH 271343 AAB
TAFBPT
TAF AMD
KBPT 271343Z 2714/2812 16005KT P6SM VCSH SCT030 OVC100
      TEMPO 2714/2718 3SM -TSRA OVC015CB
     FM271800 24010KT P6SM VCTS SCT035CB BKN050
     FM280200 VRB05KT P6SM BKN250=

USA.gov is the U.S. government's official web portal to all federal, state and local government web resources and services.